createdAt,value
2023-03-28T00:01:02.261Z,99339.91
2023-03-28T00:03:29.846Z,99345.28
2023-03-28T00:06:05.224Z,99354.75
2023-03-28T00:08:32.099Z,99358.56
2023-03-28T00:11:18.981Z,99349.50
2023-03-28T00:13:47.088Z,99350.34
2023-03-28T00:16:14.488Z,99364.22
2023-03-28T00:18:42.743Z,99357.59
2023-03-28T00:21:25.009Z,99360.34
2023-03-28T00:24:02.073Z,99359.34
2023-03-28T00:26:33.968Z,99362.34
2023-03-28T00:29:02.064Z,99369.81
2023-03-28T00:31:30.193Z,99374.88
2023-03-28T00:33:57.666Z,99378.97
2023-03-28T00:36:29.878Z,99382.16
2023-03-28T00:38:58.009Z,99391.38
2023-03-28T00:41:26.837Z,99390.63
2023-03-28T00:43:55.708Z,99378.09
2023-03-28T00:46:37.606Z,99384.38
2023-03-28T00:49:13.958Z,99391.66
2023-03-28T00:51:44.960Z,99387.63
2023-03-28T00:54:15.599Z,99390.00
2023-03-28T00:56:45.059Z,99395.38
2023-03-28T00:59:15.491Z,99395.13
2023-03-28T01:01:42.228Z,99393.88
2023-03-28T01:04:10.323Z,99399.66
2023-03-28T01:06:40.800Z,99400.06
2023-03-28T01:09:10.151Z,99397.94
2023-03-28T01:11:38.740Z,99396.28
2023-03-28T01:14:07.358Z,99387.94
2023-03-28T01:16:34.321Z,99402.97
2023-03-28T01:19:03.133Z,99401.25
2023-03-28T01:21:48.842Z,99399.28
2023-03-28T01:24:29.119Z,99394.69
2023-03-28T01:26:59.036Z,99399.66
2023-03-28T01:29:47.578Z,99397.69
2023-03-28T01:32:45.139Z,99397.59
2023-03-28T01:35:42.567Z,99409.03
2023-03-28T01:38:37.183Z,99409.25
2023-03-28T01:41:04.268Z,99396.69
2023-03-28T01:43:49.197Z,99402.47
2023-03-28T01:46:32.830Z,99416.19
2023-03-28T01:49:30.330Z,99401.63
2023-03-28T01:52:16.024Z,99400.97
2023-03-28T01:54:58.418Z,99420.34
2023-03-28T01:58:02.181Z,99404.63
2023-03-28T02:00:46.512Z,99418.16
2023-03-28T02:03:31.275Z,99402.09
2023-03-28T02:06:04.351Z,99415.69
2023-03-28T02:08:33.209Z,99424.91
2023-03-28T02:11:22.077Z,99422.41
2023-03-28T02:14:00.911Z,99413.00
2023-03-28T02:16:54.444Z,99419.06
2023-03-28T02:19:55.353Z,99423.44
2023-03-28T02:22:52.053Z,99421.91
2023-03-28T02:25:42.653Z,99425.00
2023-03-28T02:28:29.840Z,99425.38
2023-03-28T02:31:09.519Z,99430.00
2023-03-28T02:33:45.379Z,99430.88
2023-03-28T02:36:35.435Z,99434.50
2023-03-28T02:39:33.580Z,99427.91
2023-03-28T02:42:25.871Z,99445.81
2023-03-28T02:45:14.394Z,99455.56
2023-03-28T02:48:22.609Z,99449.22
2023-03-28T02:51:22.744Z,99448.91
2023-03-28T02:54:18.768Z,99461.66
2023-03-28T02:57:07.134Z,99454.59
2023-03-28T02:59:46.738Z,99465.16
2023-03-28T03:02:18.148Z,99464.66
2023-03-28T03:04:45.379Z,99459.06
2023-03-28T03:07:12.699Z,99464.81
2023-03-28T03:09:40.771Z,99474.44
2023-03-28T03:12:07.783Z,99474.38
2023-03-28T03:14:34.787Z,99478.34
2023-03-28T03:17:21.575Z,99475.13
2023-03-28T03:19:48.522Z,99483.31
2023-03-28T03:22:20.990Z,99486.13
2023-03-28T03:24:51.491Z,99487.31
2023-03-28T03:27:19.234Z,99493.09
2023-03-28T03:29:46.575Z,99485.81
2023-03-28T03:32:16.039Z,99490.31
2023-03-28T03:34:48.009Z,99489.63
2023-03-28T03:37:15.150Z,99498.19
2023-03-28T03:39:42.031Z,99495.88
2023-03-28T03:42:11.806Z,99501.03
2023-03-28T03:44:41.421Z,99493.63
2023-03-28T03:47:09.077Z,99500.56
2023-03-28T03:49:35.818Z,99504.69
2023-03-28T03:52:04.612Z,99501.34
2023-03-28T03:54:31.448Z,99495.44
2023-03-28T03:56:58.829Z,99498.22
2023-03-28T03:59:27.892Z,99507.34
2023-03-28T04:01:58.649Z,99495.47
2023-03-28T04:04:26.185Z,99498.41
2023-03-28T04:07:16.292Z,99495.75
2023-03-28T04:09:45.392Z,99495.63
2023-03-28T04:12:15.897Z,99496.94
2023-03-28T04:14:46.346Z,99500.22
2023-03-28T04:17:34.995Z,99511.97
2023-03-28T04:20:17.538Z,99509.66
2023-03-28T04:23:13.772Z,99509.34
2023-03-28T04:25:41.947Z,99517.56
2023-03-28T04:28:20.647Z,99519.06
2023-03-28T04:30:58.440Z,99520.06
2023-03-28T04:33:30.702Z,99532.44
2023-03-28T04:36:02.680Z,99532.94
2023-03-28T04:38:31.976Z,99536.56
2023-03-28T04:41:16.483Z,99541.31
2023-03-28T04:44:03.601Z,99537.88
2023-03-28T04:46:36.318Z,99544.34
2023-03-28T04:49:09.733Z,99544.16
2023-03-28T04:51:36.507Z,99549.31
2023-03-28T04:54:03.267Z,99549.78
2023-03-28T04:57:02.680Z,99549.94
2023-03-28T04:59:44.257Z,99547.94
2023-03-28T05:02:17.530Z,99552.06
2023-03-28T05:04:52.509Z,99549.03
2023-03-28T05:07:19.604Z,99558.50
2023-03-28T05:09:46.652Z,99562.44
2023-03-28T05:12:13.388Z,99557.25
2023-03-28T05:14:57.995Z,99558.59
2023-03-28T05:17:25.020Z,99559.56
2023-03-28T05:20:01.002Z,99556.41
2023-03-28T05:22:34.971Z,99565.94
2023-03-28T05:25:03.600Z,99570.97
2023-03-28T05:27:30.793Z,99555.41
2023-03-28T05:29:57.634Z,99573.94
2023-03-28T05:32:26.304Z,99575.31
2023-03-28T05:34:54.518Z,99581.44
2023-03-28T05:37:28.547Z,99587.69
2023-03-28T05:39:55.870Z,99582.63
2023-03-28T05:42:22.885Z,99580.47
2023-03-28T05:44:49.903Z,99580.75
2023-03-28T05:47:39.523Z,99589.66
2023-03-28T05:50:07.465Z,99577.94
2023-03-28T05:52:34.543Z,99581.88
2023-03-28T05:55:06.617Z,99588.88
2023-03-28T05:57:33.438Z,99576.28
2023-03-28T06:00:03.804Z,99589.72
2023-03-28T06:02:34.083Z,99582.19
2023-03-28T06:05:03.900Z,99590.91
2023-03-28T06:07:41.358Z,99593.75
2023-03-28T06:10:11.609Z,99596.16
2023-03-28T06:12:39.239Z,99595.47
2023-03-28T06:15:07.025Z,99594.81
2023-03-28T06:17:37.802Z,99590.44
2023-03-28T06:20:06.831Z,99584.88
2023-03-28T06:22:33.829Z,99590.44
2023-03-28T06:25:09.559Z,99594.63
2023-03-28T06:27:37.620Z,99590.53
2023-03-28T06:30:05.747Z,99595.38
2023-03-28T06:32:39.744Z,99571.38
2023-03-28T06:35:07.348Z,99597.94
2023-03-28T06:37:34.130Z,99602.88
2023-03-28T06:40:04.464Z,99609.75
2023-03-28T06:42:31.385Z,99613.69
2023-03-28T06:45:15.120Z,99589.78
2023-03-28T06:47:49.730Z,99599.03
2023-03-28T06:50:18.588Z,99581.28
2023-03-28T06:53:08.289Z,99584.38
2023-03-28T06:55:35.545Z,99585.47
2023-03-28T06:58:04.429Z,99597.31
2023-03-28T07:00:48.426Z,99588.94
2023-03-28T07:03:34.122Z,99620.38
2023-03-28T07:06:06.099Z,99611.28
2023-03-28T07:08:33.281Z,99599.63
2023-03-28T07:11:00.687Z,99603.59
2023-03-28T07:13:28.514Z,99623.25
2023-03-28T07:16:16.983Z,99621.00
2023-03-28T07:18:44.440Z,99614.41
2023-03-28T07:21:17.241Z,99626.09
2023-03-28T07:23:45.027Z,99628.00
2023-03-28T07:26:14.865Z,99641.41
2023-03-28T07:28:44.710Z,99635.66
2023-03-28T07:31:13.924Z,99636.94
2023-03-28T07:33:40.971Z,99647.88
2023-03-28T07:36:14.245Z,99636.16
2023-03-28T07:38:43.206Z,99645.78
2023-03-28T07:41:10.001Z,99621.03
2023-03-28T07:43:39.843Z,99637.19
2023-03-28T07:46:08.649Z,99643.13
2023-03-28T07:48:37.749Z,99647.41
2023-03-28T07:51:06.615Z,99637.50
2023-03-28T07:53:34.531Z,99638.88
2023-03-28T07:56:01.477Z,99637.47
2023-03-28T07:58:50.429Z,99645.47
2023-03-28T08:01:18.933Z,99657.22
2023-03-28T08:03:49.143Z,99656.31
2023-03-28T08:06:31.133Z,99653.13
2023-03-28T08:09:02.838Z,99648.78
2023-03-28T08:11:42.209Z,99657.69
2023-03-28T08:14:30.457Z,99658.34
2023-03-28T08:16:57.630Z,99674.91
2023-03-28T08:19:24.463Z,99655.56
2023-03-28T08:22:25.111Z,99669.59
2023-03-28T08:25:10.080Z,99672.75
2023-03-28T08:27:39.144Z,99667.16
2023-03-28T08:30:11.677Z,99672.50
2023-03-28T08:32:51.357Z,99678.63
2023-03-28T08:35:18.752Z,99681.06
2023-03-28T08:37:49.046Z,99702.03
2023-03-28T08:40:18.150Z,99695.41
2023-03-28T08:43:13.452Z,99689.91
2023-03-28T08:45:51.111Z,99702.41
2023-03-28T08:48:20.784Z,99705.03
2023-03-28T08:51:00.713Z,99691.97
2023-03-28T08:53:34.643Z,99680.19
2023-03-28T08:56:05.244Z,99692.56
2023-03-28T08:58:47.821Z,99703.59
2023-03-28T09:01:16.671Z,99705.28
2023-03-28T09:03:43.738Z,99704.50
2023-03-28T09:06:28.353Z,99716.78
2023-03-28T09:09:01.865Z,99726.69
2023-03-28T09:11:52.136Z,99710.53
2023-03-28T09:14:37.615Z,99721.63
2023-03-28T09:17:11.389Z,99722.31
2023-03-28T09:20:13.847Z,99714.13
2023-03-28T09:23:13.202Z,99730.44
2023-03-28T09:26:18.494Z,99712.66
2023-03-28T09:29:11.531Z,99705.97
2023-03-28T09:31:46.591Z,99738.63
2023-03-28T09:34:43.892Z,99719.03
2023-03-28T09:37:35.468Z,99758.69
2023-03-28T09:40:24.598Z,99745.03
2023-03-28T09:43:41.621Z,99754.38
2023-03-28T09:46:34.739Z,99762.03
2023-03-28T09:49:23.921Z,99776.22
2023-03-28T09:52:11.208Z,99787.81
2023-03-28T09:54:41.811Z,99795.75
2023-03-28T09:57:08.745Z,99775.59
2023-03-28T09:59:47.551Z,99803.56
2023-03-28T10:02:30.168Z,99799.63
2023-03-28T10:05:01.867Z,99805.88
2023-03-28T10:07:43.926Z,99802.81
2023-03-28T10:10:35.584Z,99800.06
2023-03-28T10:13:07.189Z,99798.63
2023-03-28T10:15:45.616Z,99804.13
2023-03-28T10:18:31.828Z,99792.22
2023-03-28T10:21:26.814Z,99782.50
2023-03-28T10:24:07.986Z,99787.59
2023-03-28T10:26:36.377Z,99769.16
2023-03-28T10:29:07.557Z,99767.31
2023-03-28T10:31:39.060Z,99782.50
2023-03-28T10:34:40.109Z,99782.13
2023-03-28T10:37:32.794Z,99768.44
2023-03-28T10:40:20.468Z,99794.63
2023-03-28T10:43:16.002Z,99806.41
2023-03-28T10:46:31.266Z,99816.66
2023-03-28T10:49:19.731Z,99832.06
2023-03-28T10:51:58.210Z,99812.69
2023-03-28T10:54:34.013Z,99809.88
2023-03-28T10:57:27.240Z,99819.69
2023-03-28T11:00:03.876Z,99823.31
2023-03-28T11:03:04.892Z,99818.06
2023-03-28T11:06:08.184Z,99837.53
2023-03-28T11:08:46.109Z,99852.78
2023-03-28T11:11:44.721Z,99853.88
2023-03-28T11:14:37.033Z,99847.94
2023-03-28T11:17:27.352Z,99837.97
2023-03-28T11:20:10.848Z,99842.34
2023-03-28T11:23:09.405Z,99835.84
2023-03-28T11:26:03.035Z,99828.91
2023-03-28T11:29:16.827Z,99848.53
2023-03-28T11:32:05.303Z,99830.94
2023-03-28T11:34:37.694Z,99847.56
2023-03-28T11:37:45.364Z,99828.16
2023-03-28T11:40:23.292Z,99829.47
2023-03-28T11:43:01.014Z,99824.63
2023-03-28T11:45:49.454Z,99816.03
2023-03-28T11:48:21.739Z,99819.19
2023-03-28T11:51:04.023Z,99800.34
2023-03-28T11:53:47.514Z,99797.22
2023-03-28T11:56:27.136Z,99804.16
2023-03-28T11:59:14.572Z,99798.56
2023-03-28T12:01:47.360Z,99794.88
2023-03-28T12:04:21.728Z,99793.78
2023-03-28T12:07:13.268Z,99784.97
2023-03-28T12:10:02.276Z,99792.38
2023-03-28T12:12:39.584Z,99789.00
2023-03-28T12:15:13.625Z,99784.22
2023-03-28T12:18:07.874Z,99798.88
2023-03-28T12:21:00.664Z,99782.31
2023-03-28T12:23:42.792Z,99783.56
2023-03-28T12:26:48.966Z,99823.13
2023-03-28T12:30:07.408Z,99887.25
2023-03-28T12:32:42.425Z,99875.56
2023-03-28T12:35:39.813Z,99856.72
2023-03-28T12:38:29.402Z,99841.00
2023-03-28T12:41:16.204Z,99833.78
2023-03-28T12:43:53.568Z,99824.16
2023-03-28T12:46:33.388Z,99820.84
2023-03-28T12:49:15.334Z,99828.56
2023-03-28T12:51:45.258Z,99848.50
2023-03-28T12:54:15.494Z,99839.69
2023-03-28T12:57:00.320Z,99827.53
2023-03-28T12:59:43.781Z,99822.19
2023-03-28T13:02:57.078Z,99834.75
2023-03-28T13:05:54.141Z,99827.91
2023-03-28T13:08:48.984Z,99831.75
2023-03-28T13:11:36.846Z,99835.94
2023-03-28T13:14:24.335Z,99839.25
2023-03-28T13:17:21.890Z,99833.91
2023-03-28T13:20:01.982Z,99831.91
2023-03-28T13:22:33.019Z,99809.94
2023-03-28T13:25:32.629Z,99830.97
2023-03-28T13:28:22.662Z,99816.47
2023-03-28T13:31:22.723Z,99817.69
2023-03-28T13:34:03.571Z,99835.91
2023-03-28T13:36:34.738Z,99838.63
2023-03-28T13:39:06.074Z,99856.13
2023-03-28T13:41:36.356Z,99868.22
2023-03-28T13:44:44.463Z,99879.31
2023-03-28T13:47:23.330Z,99859.75
2023-03-28T13:50:03.337Z,99860.06
2023-03-28T13:52:30.582Z,99865.59
2023-03-28T13:55:02.298Z,99866.41
2023-03-28T13:57:29.641Z,99862.25
2023-03-28T14:00:02.651Z,99865.72
2023-03-28T14:02:47.139Z,99870.41
2023-03-28T14:05:20.665Z,99867.91
2023-03-28T14:07:47.973Z,99856.84
2023-03-28T14:10:34.448Z,99857.50
2023-03-28T14:13:15.930Z,99855.81
2023-03-28T14:15:43.971Z,99858.72
2023-03-28T14:18:22.503Z,99843.16
2023-03-28T14:20:49.839Z,99857.19
2023-03-28T14:23:37.318Z,99858.38
2023-03-28T14:26:09.020Z,99870.59
2023-03-28T14:28:40.175Z,99864.56
2023-03-28T14:31:19.321Z,99867.72
2023-03-28T14:33:47.558Z,99874.38
2023-03-28T14:36:16.536Z,99874.63
2023-03-28T14:38:44.273Z,99869.47
2023-03-28T14:41:28.479Z,99870.56
2023-03-28T14:43:57.986Z,99866.09
2023-03-28T14:46:28.753Z,99864.38
2023-03-28T14:49:00.600Z,99869.22
2023-03-28T14:51:28.429Z,99866.75
2023-03-28T14:53:57.804Z,99877.69
2023-03-28T14:56:28.272Z,99878.00
2023-03-28T14:59:00.745Z,99873.50
2023-03-28T15:01:29.011Z,99875.94
2023-03-28T15:04:00.973Z,99877.84
2023-03-28T15:06:31.048Z,99877.72
2023-03-28T15:09:02.187Z,99889.16
2023-03-28T15:11:32.766Z,99869.41
2023-03-28T15:14:04.276Z,99865.47
2023-03-28T15:16:32.516Z,99870.19
2023-03-28T15:19:09.640Z,99860.84
2023-03-28T15:21:42.682Z,99869.66
2023-03-28T15:24:16.891Z,99872.16
2023-03-28T15:26:47.224Z,99869.28
2023-03-28T15:29:19.125Z,99879.69
2023-03-28T15:31:46.610Z,99875.34
2023-03-28T15:34:26.387Z,99873.34
2023-03-28T15:37:07.123Z,99869.09
2023-03-28T15:39:37.150Z,99880.78
2023-03-28T15:42:22.855Z,99874.44
2023-03-28T15:44:58.923Z,99886.38
2023-03-28T15:47:29.528Z,99901.66
2023-03-28T15:50:03.763Z,99896.66
2023-03-28T15:52:32.178Z,99912.09
2023-03-28T15:55:00.397Z,99919.56
2023-03-28T15:57:29.642Z,99919.28
2023-03-28T15:59:58.520Z,99918.78
2023-03-28T16:02:25.797Z,99921.81
2023-03-28T16:05:08.235Z,99927.66
2023-03-28T16:07:35.124Z,99932.66
2023-03-28T16:10:03.068Z,99933.06
2023-03-28T16:12:36.573Z,99945.84
2023-03-28T16:15:33.121Z,99946.41
2023-03-28T16:18:15.861Z,99952.09
2023-03-28T16:20:52.545Z,99949.63
2023-03-28T16:23:19.675Z,99950.63
2023-03-28T16:25:48.977Z,99954.97
2023-03-28T16:28:19.209Z,99965.72
2023-03-28T16:30:52.801Z,99955.53
2023-03-28T16:33:20.095Z,99954.06
2023-03-28T16:35:46.976Z,99961.41
2023-03-28T16:38:18.951Z,99966.66
2023-03-28T16:40:48.786Z,99979.97
2023-03-28T16:43:17.720Z,99982.25
2023-03-28T16:45:50.809Z,99986.38
2023-03-28T16:48:19.647Z,99982.25
2023-03-28T16:50:56.098Z,99988.78
2023-03-28T16:53:24.594Z,99983.16
2023-03-28T16:55:53.275Z,99983.06
2023-03-28T16:58:20.612Z,99980.88
2023-03-28T17:00:50.536Z,99996.84
2023-03-28T17:03:17.911Z,99990.84
2023-03-28T17:05:45.320Z,99995.53
2023-03-28T17:08:14.734Z,99995.47
2023-03-28T17:10:44.543Z,100009.22
2023-03-28T17:13:11.353Z,100004.50
2023-03-28T17:15:40.772Z,100017.78
2023-03-28T17:18:07.580Z,100009.53
2023-03-28T17:20:41.023Z,100006.25
2023-03-28T17:23:12.595Z,100006.63
2023-03-28T17:25:52.160Z,100007.63
2023-03-28T17:28:21.180Z,100015.06
2023-03-28T17:30:48.005Z,100009.63
2023-03-28T17:33:15.478Z,100017.59
2023-03-28T17:35:42.316Z,100017.31
2023-03-28T17:38:11.176Z,100021.91
2023-03-28T17:40:43.606Z,100026.78
2023-03-28T17:43:11.748Z,100029.53
2023-03-28T17:45:38.814Z,100033.78
2023-03-28T17:48:06.503Z,100036.25
2023-03-28T17:50:34.043Z,100049.72
2023-03-28T17:53:06.906Z,100033.91
2023-03-28T17:55:36.876Z,100040.19
2023-03-28T17:58:07.699Z,100056.69
2023-03-28T18:00:34.469Z,100038.38
2023-03-28T18:03:01.381Z,100048.00
2023-03-28T18:05:58.238Z,100042.28
2023-03-28T18:08:25.064Z,100046.50
2023-03-28T18:10:51.796Z,100043.19
2023-03-28T18:13:21.674Z,100052.09
2023-03-28T18:15:52.481Z,100044.13
2023-03-28T18:18:20.417Z,100047.97
2023-03-28T18:20:49.917Z,100050.50
2023-03-28T18:23:17.618Z,100047.19
2023-03-28T18:25:45.982Z,100053.22
2023-03-28T18:28:12.751Z,100051.22
2023-03-28T18:30:40.792Z,100052.84
2023-03-28T18:33:11.863Z,100052.38
2023-03-28T18:35:40.748Z,100055.69
2023-03-28T18:38:07.755Z,100050.84
2023-03-28T18:40:34.641Z,100061.19
2023-03-28T18:43:01.557Z,100054.22
2023-03-28T18:45:28.398Z,100060.34
2023-03-28T18:47:55.938Z,100059.59
2023-03-28T18:50:22.901Z,100061.94
2023-03-28T18:52:49.560Z,100064.31
2023-03-28T18:55:17.772Z,100058.47
2023-03-28T18:57:44.868Z,100057.13
2023-03-28T19:00:18.574Z,100057.47
2023-03-28T19:02:51.418Z,100063.69
2023-03-28T19:05:18.620Z,100058.72
2023-03-28T19:07:45.738Z,100057.19
2023-03-28T19:10:13.700Z,100069.59
2023-03-28T19:12:42.308Z,100077.09
2023-03-28T19:15:12.986Z,100065.81
2023-03-28T19:17:40.467Z,100074.97
2023-03-28T19:20:12.315Z,100067.09
2023-03-28T19:22:42.743Z,100069.16
2023-03-28T19:25:10.225Z,100074.25
2023-03-28T19:27:37.809Z,100079.84
2023-03-28T19:30:05.660Z,100065.13
2023-03-28T19:32:35.504Z,100068.84
2023-03-28T19:35:02.608Z,100064.63
2023-03-28T19:37:29.361Z,100073.44
2023-03-28T19:39:59.244Z,100077.97
2023-03-28T19:42:26.253Z,100090.72
2023-03-28T19:44:54.236Z,100081.47
2023-03-28T19:47:21.216Z,100081.28
2023-03-28T19:49:49.839Z,100080.00
2023-03-28T19:52:16.550Z,100077.66
2023-03-28T19:54:44.674Z,100084.91
2023-03-28T19:57:13.806Z,100085.91
2023-03-28T19:59:40.872Z,100091.50
2023-03-28T20:02:07.877Z,100081.78
2023-03-28T20:04:34.726Z,100088.19
2023-03-28T20:07:01.442Z,100090.72
2023-03-28T20:09:28.339Z,100093.88
2023-03-28T20:11:55.280Z,100091.03
2023-03-28T20:14:26.258Z,100092.22
2023-03-28T20:16:53.547Z,100088.72
2023-03-28T20:19:20.417Z,100090.44
2023-03-28T20:21:47.372Z,100083.78
2023-03-28T20:24:22.408Z,100084.97
2023-03-28T20:26:49.192Z,100091.44
2023-03-28T20:29:17.927Z,100097.06
2023-03-28T20:31:44.743Z,100094.72
2023-03-28T20:34:11.659Z,100102.72
2023-03-28T20:36:42.996Z,100111.00
2023-03-28T20:39:09.727Z,100111.34
2023-03-28T20:41:37.792Z,100111.19
2023-03-28T20:44:04.563Z,100111.00
2023-03-28T20:46:32.816Z,100114.34
2023-03-28T20:49:04.036Z,100116.97
2023-03-28T20:51:33.413Z,100120.44
2023-03-28T20:54:01.744Z,100120.28
2023-03-28T20:56:30.276Z,100121.81
2023-03-28T20:59:01.177Z,100123.94
2023-03-28T21:01:29.925Z,100127.41
2023-03-28T21:04:00.260Z,100131.75
2023-03-28T21:06:34.700Z,100128.41
2023-03-28T21:09:07.283Z,100129.91
2023-03-28T21:11:36.761Z,100127.59
2023-03-28T21:14:05.169Z,100130.41
2023-03-28T21:16:32.926Z,100130.22
2023-03-28T21:19:10.719Z,100136.88
2023-03-28T21:21:38.252Z,100128.25
2023-03-28T21:24:07.525Z,100126.94
2023-03-28T21:26:36.895Z,100127.59
2023-03-28T21:29:04.856Z,100123.94
2023-03-28T21:31:32.878Z,100128.25
2023-03-28T21:33:59.920Z,100123.13
2023-03-28T21:36:28.489Z,100122.28
2023-03-28T21:38:56.202Z,100117.97
2023-03-28T21:41:23.578Z,100117.16
2023-03-28T21:43:50.657Z,100120.94
2023-03-28T21:46:18.779Z,100118.78
2023-03-28T21:48:48.513Z,100122.41
2023-03-28T21:51:16.691Z,100115.41
2023-03-28T21:53:43.517Z,100119.19
2023-03-28T21:56:11.793Z,100124.28
2023-03-28T21:58:41.456Z,100129.50
2023-03-28T22:01:08.498Z,100121.69
2023-03-28T22:03:37.099Z,100129.66
2023-03-28T22:06:04.638Z,100128.59
2023-03-28T22:08:31.584Z,100132.31
2023-03-28T22:11:04.430Z,100137.91
2023-03-28T22:13:34.511Z,100137.78
2023-03-28T22:16:01.978Z,100140.06
2023-03-28T22:18:30.788Z,100145.16
2023-03-28T22:20:57.804Z,100143.03
2023-03-28T22:23:25.298Z,100138.34
2023-03-28T22:25:56.672Z,100141.69
2023-03-28T22:28:26.768Z,100146.13
2023-03-28T22:30:54.535Z,100146.59
2023-03-28T22:33:25.684Z,100139.13
2023-03-28T22:35:54.888Z,100142.38
2023-03-28T22:38:21.544Z,100138.53
2023-03-28T22:40:48.619Z,100136.88
2023-03-28T22:43:16.149Z,100134.63
2023-03-28T22:45:43.064Z,100133.31
2023-03-28T22:48:16.225Z,100124.50
2023-03-28T22:50:44.535Z,100117.88
2023-03-28T22:53:12.545Z,100114.84
2023-03-28T22:55:45.437Z,100116.06
2023-03-28T22:58:15.073Z,100112.59
2023-03-28T23:00:43.883Z,100108.47
2023-03-28T23:03:10.626Z,100114.47
2023-03-28T23:05:37.754Z,100116.06
2023-03-28T23:08:05.943Z,100109.19
2023-03-28T23:10:33.426Z,100111.75
2023-03-28T23:13:00.599Z,100114.00
2023-03-28T23:15:27.986Z,100109.38
2023-03-28T23:17:54.835Z,100107.13
2023-03-28T23:20:21.552Z,100106.84
2023-03-28T23:22:48.836Z,100109.13
2023-03-28T23:25:18.681Z,100102.91
2023-03-28T23:27:46.534Z,100105.81
2023-03-28T23:30:17.691Z,100116.09
2023-03-28T23:32:44.637Z,100110.06
2023-03-28T23:35:14.362Z,100114.69
2023-03-28T23:37:41.729Z,100111.50
2023-03-28T23:40:14.878Z,100121.38
2023-03-28T23:42:44.495Z,100113.34
2023-03-28T23:45:13.213Z,100104.91
2023-03-28T23:47:39.923Z,100102.53
2023-03-28T23:50:10.343Z,100105.34
2023-03-28T23:52:38.461Z,100100.94
2023-03-28T23:55:10.261Z,100100.97
2023-03-28T23:57:37.301Z,100101.78
